Погода Грудзьна неделю

Люблинское воеводство, Польша

18 - 24 июля
  • 18июля
    Сегодня
    +15°
    +27°
    Ясно и безоблачно
    ВремяПогодаТемператураВлажностьДавлениеВетер, м/сВероятность осадков
    02:00Облачно с прояснениями+19°C68 %753 мм2.1 м/с40 %
    05:00Ясно и безоблачно+17°C87 %753 мм1.8 м/с20 %
    08:00Ясно и безоблачно+21°C71 %753 мм1.9 м/с2 %
    11:00Ясно и безоблачно+25°C51 %754 мм3.0 м/с2 %
    14:00Ясно и безоблачно+26°C43 %753 мм4.2 м/с2 %
    17:00Практически безоблачно+26°C40 %753 мм4.3 м/с2 %
    20:00Ясно и безоблачно+23°C55 %753 мм2.0 м/с2 %
    23:00Ясно и безоблачно+19°C65 %754 мм2.7 м/с2 %
  • 19июля
    Пятница
    +14°
    +27°
    Ясно и безоблачно
    ВремяПогодаТемператураВлажностьДавлениеВетер, м/сВероятность осадков
    02:00Ясно и безоблачно+17°C72 %754 мм2.5 м/с2 %
    05:00Небольшая облачность+15°C82 %753 мм2.4 м/с2 %
    08:00Облачно с прояснениями+20°C74 %754 мм1.4 м/с2 %
    11:00Облачно с прояснениями+24°C50 %754 мм2.0 м/с2 %
    14:00Ясно и безоблачно+26°C42 %753 мм2.9 м/с2 %
    17:00Ясно и безоблачно+26°C41 %751 мм3.3 м/с2 %
    20:00Ясно и безоблачно+23°C54 %751 мм2.1 м/с2 %
    23:00Ясно и безоблачно+18°C65 %751 мм2.3 м/с2 %
  • 20июля
    Суббота
    +15°
    +28°
    Небольшая облачность
    ВремяПогодаТемператураВлажностьДавлениеВетер, м/сВероятность осадков
    02:00Ясно и безоблачно+16°C73 %750 мм1.6 м/с2 %
    05:00Небольшая облачность+14°C81 %750 мм1.5 м/с2 %
    08:00Облачно с прояснениями+20°C68 %750 мм0.3 м/с2 %
    11:00Облачно с прояснениями+24°C49 %749 мм0.9 м/с2 %
    14:00Небольшая облачность+26°C43 %748 мм0.3 м/с2 %
    17:00Практически безоблачно+27°C38 %747 мм0.6 м/с2 %
    20:00Облачно с прояснениями+24°C65 %746 мм1.2 м/с2 %
    23:00Облачно с прояснениями+19°C71 %746 мм1.0 м/с2 %
  • 21июля
    Воскресенье
    +15°
    +28°
    Облачно с прояснениями
    ВремяПогодаТемператураВлажностьДавлениеВетер, м/сВероятность осадков
    02:00Облачно с прояснениями+17°C73 %746 мм1.7 м/с2 %
    05:00Облачно с прояснениями+16°C70 %745 мм1.2 м/с2 %
    08:00Облачно с прояснениями+21°C65 %745 мм0.4 м/с2 %
    11:00Облачно с прояснениями+26°C42 %745 мм1.3 м/с2 %
    14:00Облачно с прояснениями+28°C37 %745 мм1.2 м/с3 %
    17:00Небольшая облачность+27°C36 %744 мм2.3 м/с3 %
    20:00Ясно и безоблачно+24°C60 %744 мм1.5 м/с2 %
    23:00Ясно и безоблачно+21°C58 %744 мм1.3 м/с2 %
  • 22июля
    Понедельник
    +16°
    +29°
    Практически безоблачно
    ВремяПогодаТемператураВлажностьДавлениеВетер, м/сВероятность осадков
    02:00Ясно и безоблачно+17°C77 %744 мм1.2 м/с2 %
    05:00Ясно и безоблачно+16°C80 %744 мм1.1 м/с2 %
    08:00Ясно и безоблачно+22°C63 %744 мм0.2 м/с2 %
    11:00Практически безоблачно+28°C39 %744 мм0.8 м/с8 %
    14:00Практически безоблачно+29°C33 %744 мм1.5 м/с17 %
    17:00Практически безоблачно+27°C32 %744 мм1.5 м/с25 %
    20:00Облачно с прояснениями+25°C46 %744 мм3.7 м/с23 %
    23:00Облачно с прояснениями+20°C67 %745 мм3.6 м/с19 %
Мы используем cookies
Соглашаюсь